< < Back
Terminal Aerodrome Forecast


Current Version              Previous Versions:   1  2  3  4  5  6  7  8  9  

Terminal Aerodrome Forecast

312
FTUS42 KGSP 300523
TAFAVL
TAF
KAVL 300523Z 3006/0106 00000KT P6SM BKN050
     FM300900 34003KT 4SM BR SCT250
      TEMPO 3009/3013 2SM BR SCT003
     FM301300 34003KT P6SM SCT250
     FM301500 15003KT P6SM SCT250
     FM301700 17005KT P6SM VCTS BKN050CB PROB30 3017/3023 4SM -TSRA
      OVC025CB
     FM010100 VRB03KT P6SM SCT060
     FM010500 VRB03KT 5SM BR SCT015=

Latest METAR

150
SAUS70 KWBC 300600 RRB
MTRAVL
METAR KAVL 300554Z AUTO 00000KT 10SM CLR 19/15 A3007 RMK AO2 SLP153
T01890150 10261 20183 58002


USA.gov is the U.S. government's official web portal to all federal, state and local government web resources and services.